Time;durP1;ratioP1;P1;durP2;ratioP2;P2;SDS_P1;SDS_P2;PMS_P1;PMS_P2;Temp;Humidity;BMP_temperature;BMP_pressure;BME280_temperature;BME280_humidity;BME280_pressure;Samples;Min_cycle;Max_cycle;Signal;HPM_P1;HPM_P2
2022/03/25 00:02:19;;;;;;;21.70;9.93;;;6.70;72.50;;;;;;6254773;28;20048;-80
2022/03/25 00:05:23;;;;;;;21.77;8.50;;;6.70;72.60;;;;;;6253866;28;20644;-80
2022/03/25 00:08:26;;;;;;;22.08;9.80;;;6.60;72.70;;;;;;6255689;28;20072;-81
2022/03/25 00:11:28;;;;;;;20.55;9.60;;;6.60;72.80;;;;;;6255743;28;20057;-81
2022/03/25 00:14:29;;;;;;;26.25;10.63;;;6.60;73.40;;;;;;6254825;28;20049;-81
2022/03/25 00:17:31;;;;;;;17.70;7.80;;;6.50;73.70;;;;;;6255165;28;20442;-81
2022/03/25 00:20:35;;;;;;;20.50;9.07;;;6.40;74.10;;;;;;6254618;28;20049;-81
2022/03/25 00:23:37;;;;;;;21.05;9.75;;;6.40;74.10;;;;;;6254682;28;20100;-79
2022/03/25 00:34:33;;;;;;;17.35;8.93;;;6.10;75.40;;;;;;6253127;28;20034;-80
2022/03/25 00:37:36;;;;;;;23.00;9.30;;;6.00;75.70;;;;;;6244518;28;20136;-80
2022/03/25 00:40:38;;;;;;;18.50;8.93;;;6.00;75.70;;;;;;6253576;28;20049;-81
2022/03/25 00:43:41;;;;;;;19.40;9.82;;;6.00;75.80;;;;;;6253199;28;20108;-80
2022/03/25 00:46:42;;;;;;;18.77;9.23;;;6.00;76.30;;;;;;6252562;28;20057;-81
2022/03/25 00:49:44;;;;;;;19.70;9.63;;;5.90;76.10;;;;;;6253372;28;20088;-81
2022/03/25 00:52:48;;;;;;;15.77;8.15;;;5.90;76.10;;;;;;6251979;28;20530;-81
2022/03/25 00:55:51;;;;;;;14.93;7.65;;;5.90;76.60;;;;;;6251617;28;20050;-81
2022/03/25 00:58:53;;;;;;;19.98;9.70;;;5.80;76.80;;;;;;6253027;28;20136;-81
2022/03/25 01:01:55;;;;;;;17.77;8.25;;;5.70;76.80;;;;;;6258043;28;20049;-79
2022/03/25 01:04:57;;;;;;;20.10;9.68;;;5.70;77.10;;;;;;6270907;28;20041;-80
2022/03/25 01:08:00;;;;;;;24.25;9.57;;;5.60;77.70;;;;;;6261220;28;20045;-81
2022/03/25 01:11:04;;;;;;;19.23;9.32;;;5.60;77.80;;;;;;6255771;28;20049;-81
2022/03/25 01:14:07;;;;;;;20.63;10.30;;;5.60;78.40;;;;;;6254183;28;20135;-81
2022/03/25 01:17:09;;;;;;;19.30;9.38;;;5.50;78.30;;;;;;6252983;28;20041;-81
2022/03/25 01:20:11;;;;;;;17.98;8.70;;;5.50;78.90;;;;;;6252868;28;20049;-81
2022/03/25 01:23:14;;;;;;;22.73;9.95;;;5.50;79.10;;;;;;6257335;28;20077;-81
2022/03/25 01:26:16;;;;;;;25.40;9.77;;;5.40;79.00;;;;;;6256165;28;20061;-81
2022/03/25 01:29:19;;;;;;;21.45;9.13;;;5.40;79.20;;;;;;6255139;28;20537;-81
2022/03/25 01:32:21;;;;;;;20.23;9.75;;;5.40;79.40;;;;;;6253529;28;20517;-81
2022/03/25 01:35:24;;;;;;;21.88;9.80;;;5.40;79.50;;;;;;6252663;28;20049;-81
2022/03/25 01:38:27;;;;;;;18.58;8.05;;;5.30;79.20;;;;;;6253403;28;20042;-81
2022/03/25 01:41:29;;;;;;;22.13;10.00;;;5.30;79.20;;;;;;6253351;28;20049;-81
2022/03/25 01:44:32;;;;;;;18.90;8.85;;;5.30;79.60;;;;;;6251811;28;20069;-81
2022/03/25 01:47:34;;;;;;;18.92;9.52;;;5.30;79.50;;;;;;6252770;28;20526;-81
2022/03/25 01:50:37;;;;;;;23.15;9.82;;;5.20;79.30;;;;;;6251711;28;20175;-81
2022/03/25 01:53:40;;;;;;;23.80;9.68;;;5.20;79.50;;;;;;6252525;28;20128;-81
2022/03/25 01:56:42;;;;;;;23.40;9.48;;;5.20;79.40;;;;;;6250551;28;20084;-81
2022/03/25 01:59:44;;;;;;;19.13;9.90;;;5.20;79.30;;;;;;6247373;28;20132;-81
2022/03/25 02:02:46;;;;;;;36.22;9.90;;;5.10;79.40;;;;;;6251436;28;20077;-80
2022/03/25 02:05:49;;;;;;;25.08;10.57;;;5.10;79.20;;;;;;6250261;28;20045;-81
2022/03/25 02:08:52;;;;;;;18.92;9.57;;;5.00;79.10;;;;;;6251700;28;20530;-81
2022/03/25 02:11:54;;;;;;;17.90;8.52;;;5.00;79.50;;;;;;6250563;28;20075;-80
2022/03/25 02:14:57;;;;;;;19.88;9.38;;;5.00;79.20;;;;;;6250023;28;20080;-81
2022/03/25 02:18:02;;;;;;;20.00;10.20;;;5.00;79.10;;;;;;6251147;28;20045;-81
2022/03/25 02:21:04;;;;;;;18.83;9.88;;;4.90;79.50;;;;;;6249465;28;20068;-81
2022/03/25 02:24:08;;;;;;;17.83;9.48;;;4.90;79.90;;;;;;6251365;28;20179;-81
2022/03/25 02:27:12;;;;;;;19.45;9.02;;;4.90;80.10;;;;;;6249509;28;20092;-80
2022/03/25 02:30:14;;;;;;;25.02;10.20;;;4.90;80.40;;;;;;6255002;28;20041;-80
2022/03/25 02:33:16;;;;;;;20.98;8.80;;;4.80;80.60;;;;;;6254284;28;20507;-80
2022/03/25 02:36:18;;;;;;;23.58;9.90;;;4.80;80.70;;;;;;6253401;28;20132;-80
2022/03/25 02:39:22;;;;;;;19.77;8.90;;;4.80;80.90;;;;;;6254525;28;20049;-80
2022/03/25 02:42:23;;;;;;;26.05;9.60;;;4.70;81.00;;;;;;6254964;28;20046;-81
2022/03/25 02:45:25;;;;;;;22.95;9.32;;;4.70;80.60;;;;;;6253930;28;20119;-80
2022/03/25 02:48:27;;;;;;;19.77;10.13;;;4.60;81.10;;;;;;6254553;28;20062;-80
2022/03/25 02:51:29;;;;;;;20.80;9.85;;;4.60;81.50;;;;;;6253596;28;20049;-80
2022/03/25 02:54:32;;;;;;;19.08;10.82;;;4.60;81.80;;;;;;6252597;28;20427;-80
2022/03/25 02:57:34;;;;;;;24.45;9.50;;;4.50;81.90;;;;;;6253544;28;20415;-80
2022/03/25 03:00:36;;;;;;;22.15;10.27;;;4.40;82.40;;;;;;6254169;28;20056;-80
2022/03/25 03:03:38;;;;;;;22.92;8.90;;;4.40;83.40;;;;;;6254460;28;20045;-80
2022/03/25 03:06:39;;;;;;;19.20;9.38;;;4.30;82.50;;;;;;6253691;28;20562;-80
2022/03/25 03:09:42;;;;;;;19.05;9.55;;;4.20;83.30;;;;;;6253823;28;20535;-80
2022/03/25 03:12:44;;;;;;;21.20;10.00;;;4.20;83.10;;;;;;6235296;28;20078;-80
2022/03/25 03:15:47;;;;;;;26.92;11.40;;;4.20;82.90;;;;;;6230877;28;20507;-81
2022/03/25 03:18:48;;;;;;;25.50;11.30;;;4.20;83.20;;;;;;6231476;28;20064;-80
2022/03/25 03:21:50;;;;;;;21.13;9.93;;;4.20;83.50;;;;;;6229897;28;20052;-80
2022/03/25 03:24:53;;;;;;;24.40;10.98;;;4.20;83.30;;;;;;6247474;23;20179;-78
2022/03/25 03:27:56;;;;;;;19.60;9.60;;;4.10;83.50;;;;;;6254631;28;20109;-78
2022/03/25 03:30:57;;;;;;;23.88;9.40;;;4.10;83.60;;;;;;6251341;28;20106;-78
2022/03/25 03:33:59;;;;;;;24.98;10.73;;;4.10;83.70;;;;;;6249946;28;20115;-78
2022/03/25 03:37:01;;;;;;;21.95;9.43;;;4.00;83.80;;;;;;6249133;28;20520;-78
2022/03/25 03:40:05;;;;;;;25.45;10.40;;;4.00;83.80;;;;;;6250724;28;20068;-78
2022/03/25 03:43:07;;;;;;;23.08;11.45;;;4.00;83.70;;;;;;6251549;28;20053;-79
2022/03/25 03:46:09;;;;;;;30.90;11.57;;;4.00;83.70;;;;;;6249536;28;20045;-78
2022/03/25 03:49:11;;;;;;;25.38;10.02;;;4.00;84.20;;;;;;6250170;28;20616;-78
2022/03/25 03:52:13;;;;;;;28.95;11.00;;;4.00;84.00;;;;;;6252842;28;20129;-80
2022/03/25 03:55:16;;;;;;;24.17;10.25;;;4.00;83.80;;;;;;6254657;28;20126;-81
2022/03/25 03:58:18;;;;;;;21.63;10.40;;;4.00;83.80;;;;;;6255541;28;20605;-78
2022/03/25 04:01:20;;;;;;;24.83;10.75;;;3.90;84.00;;;;;;6255633;28;20123;-79
2022/03/25 04:04:21;;;;;;;20.17;10.40;;;3.90;83.80;;;;;;6254927;28;20131;-78
2022/03/25 04:07:23;;;;;;;23.73;10.98;;;3.90;84.00;;;;;;6254117;28;20045;-78
2022/03/25 04:10:26;;;;;;;26.10;11.77;;;3.80;84.40;;;;;;6254585;28;20132;-78
2022/03/25 04:13:28;;;;;;;31.10;12.27;;;3.80;84.30;;;;;;6255206;28;20400;-80
2022/03/25 04:16:30;;;;;;;28.85;11.85;;;3.80;84.60;;;;;;6253828;28;20483;-78
2022/03/25 04:19:32;;;;;;;24.08;10.05;;;3.70;84.80;;;;;;6254262;28;20139;-79
2022/03/25 04:22:34;;;;;;;22.83;10.40;;;3.70;85.50;;;;;;6252731;28;20041;-78
2022/03/25 04:25:37;;;;;;;25.98;11.32;;;3.70;85.50;;;;;;6252475;28;20120;-78
2022/03/25 04:28:39;;;;;;;29.38;11.52;;;3.60;85.70;;;;;;6253050;28;20057;-78
2022/03/25 04:31:41;;;;;;;23.92;10.65;;;3.60;85.80;;;;;;6252621;28;20056;-78
2022/03/25 04:34:42;;;;;;;28.85;11.90;;;3.60;85.80;;;;;;6250975;28;20132;-78
2022/03/25 04:37:44;;;;;;;23.80;10.73;;;3.60;86.20;;;;;;6252284;28;20120;-78
2022/03/25 04:40:48;;;;;;;32.25;11.73;;;3.60;86.20;;;;;;6250806;28;20055;-78
2022/03/25 04:43:51;;;;;;;26.88;11.48;;;3.50;86.10;;;;;;6252001;28;20053;-78
2022/03/25 04:46:53;;;;;;;23.20;10.00;;;3.40;86.30;;;;;;6250547;28;20049;-80
2022/03/25 04:49:56;;;;;;;24.25;10.50;;;3.40;86.40;;;;;;6250833;28;20411;-78
2022/03/25 04:52:58;;;;;;;23.83;10.23;;;3.40;86.60;;;;;;6250898;28;20514;-78
2022/03/25 04:56:02;;;;;;;27.92;10.65;;;3.40;86.40;;;;;;6251884;28;20053;-78
2022/03/25 04:59:03;;;;;;;22.45;11.02;;;3.40;86.20;;;;;;6251734;28;20522;-78
2022/03/25 05:02:05;;;;;;;19.70;9.27;;;3.40;86.50;;;;;;6251196;28;20053;-78
2022/03/25 05:05:08;;;;;;;19.77;9.40;;;3.40;86.00;;;;;;6251234;28;20075;-78
2022/03/25 05:08:10;;;;;;;23.17;11.13;;;3.40;85.50;;;;;;6252640;28;20046;-78
2022/03/25 05:11:13;;;;;;;24.92;11.00;;;3.30;85.70;;;;;;6250312;28;20057;-78
2022/03/25 05:14:16;;;;;;;23.48;10.98;;;3.40;85.40;;;;;;6254789;28;20156;-78
2022/03/25 05:17:18;;;;;;;27.75;11.43;;;3.30;85.20;;;;;;6256476;28;20356;-79
2022/03/25 05:20:21;;;;;;;27.60;11.77;;;3.30;85.30;;;;;;6254998;28;20109;-79
2022/03/25 05:23:23;;;;;;;19.88;9.77;;;3.30;85.60;;;;;;6256211;28;20593;-79
2022/03/25 05:26:26;;;;;;;25.98;10.02;;;3.30;85.70;;;;;;6254912;28;20049;-78
2022/03/25 05:29:28;;;;;;;24.45;11.70;;;3.30;86.60;;;;;;6255961;28;20192;-78
2022/03/25 05:32:30;;;;;;;21.20;9.95;;;3.30;85.70;;;;;;6256254;28;20053;-78
2022/03/25 05:35:32;;;;;;;32.78;11.38;;;3.30;85.80;;;;;;6256991;28;20054;-79
2022/03/25 05:38:34;;;;;;;25.95;11.80;;;3.40;86.00;;;;;;6256641;28;20097;-78
2022/03/25 05:41:38;;;;;;;21.02;9.65;;;3.40;86.40;;;;;;6251885;28;20053;-78
2022/03/25 05:44:39;;;;;;;27.02;12.50;;;3.50;86.40;;;;;;6249405;28;20045;-78
2022/03/25 05:47:42;;;;;;;21.27;11.65;;;3.60;86.60;;;;;;6250401;28;20107;-81
2022/03/25 05:50:44;;;;;;;23.83;10.82;;;3.60;86.30;;;;;;6252067;28;20075;-78
2022/03/25 05:53:45;;;;;;;28.83;12.68;;;3.70;86.30;;;;;;6251149;28;20053;-78
2022/03/25 05:56:48;;;;;;;26.77;12.23;;;3.80;86.20;;;;;;6250770;28;20088;-78
2022/03/25 05:59:50;;;;;;;27.23;13.32;;;4.00;86.20;;;;;;6251614;28;20049;-78
2022/03/25 06:02:52;;;;;;;37.97;10.93;;;4.10;86.20;;;;;;6248745;28;20052;-78
2022/03/25 06:05:54;;;;;;;36.33;12.52;;;4.20;86.00;;;;;;6249664;28;20135;-78
2022/03/25 06:08:56;;;;;;;26.55;11.55;;;4.40;85.80;;;;;;6250581;28;20049;-78
2022/03/25 06:11:59;;;;;;;30.67;11.88;;;4.50;85.40;;;;;;6251115;28;20089;-78
2022/03/25 06:15:02;;;;;;;29.58;11.85;;;4.70;85.10;;;;;;6254506;28;20573;-79
2022/03/25 06:18:04;;;;;;;28.42;14.75;;;4.80;84.80;;;;;;6254420;28;20037;-78
2022/03/25 06:21:06;;;;;;;25.80;10.65;;;5.10;84.40;;;;;;6254250;28;20042;-78
2022/03/25 06:24:08;;;;;;;41.97;12.02;;;5.30;83.80;;;;;;6253701;28;20084;-78
2022/03/25 06:27:12;;;;;;;26.63;11.75;;;5.50;83.20;;;;;;6253360;28;20511;-78
2022/03/25 06:30:14;;;;;;;30.45;12.90;;;5.80;82.60;;;;;;6255344;28;20056;-78
2022/03/25 06:33:16;;;;;;;26.65;11.13;;;6.00;81.90;;;;;;6254202;28;20415;-78
2022/03/25 06:36:18;;;;;;;30.15;14.07;;;6.30;81.10;;;;;;6253854;28;20056;-78
2022/03/25 06:39:20;;;;;;;22.13;11.15;;;6.60;80.40;;;;;;6255737;28;20041;-78
2022/03/25 06:42:23;;;;;;;27.25;11.18;;;7.00;79.80;;;;;;6255579;28;20050;-78
2022/03/25 06:45:26;;;;;;;21.88;10.98;;;7.30;79.00;;;;;;6253570;28;20064;-79
2022/03/25 06:48:29;;;;;;;25.95;13.38;;;7.60;78.30;;;;;;6253244;28;20075;-79
2022/03/25 06:51:31;;;;;;;24.83;12.13;;;8.00;77.70;;;;;;6253355;28;20050;-79
2022/03/25 06:54:33;;;;;;;22.52;10.27;;;8.30;76.90;;;;;;6252984;28;20077;-78
2022/03/25 06:57:38;;;;;;;24.92;11.85;;;8.60;76.10;;;;;;6254136;28;20519;-79
2022/03/25 07:00:41;;;;;;;27.48;13.18;;;8.90;75.50;;;;;;6253787;28;20045;-79
2022/03/25 07:03:43;;;;;;;25.67;11.45;;;9.30;73.40;;;;;;6252463;28;20045;-78
2022/03/25 07:06:49;;;;;;;20.90;11.45;;;9.70;72.20;;;;;;6251147;28;20059;-78
2022/03/25 07:09:52;;;;;;;22.30;11.15;;;10.10;71.60;;;;;;6252210;28;20136;-78
2022/03/25 07:12:55;;;;;;;25.00;11.77;;;10.60;71.00;;;;;;6252522;28;20079;-79
2022/03/25 07:15:57;;;;;;;26.85;12.98;;;11.10;68.90;;;;;;6257772;28;20053;-79
2022/03/25 07:19:00;;;;;;;29.73;12.60;;;11.60;67.60;;;;;;6259230;28;20056;-79
2022/03/25 07:22:02;;;;;;;31.13;14.35;;;12.10;65.30;;;;;;6257748;28;20045;-79
2022/03/25 07:25:04;;;;;;;26.60;12.23;;;12.70;63.50;;;;;;6257583;28;20418;-79
2022/03/25 07:28:07;;;;;;;33.60;14.30;;;13.60;61.60;;;;;;6257314;28;20051;-78
2022/03/25 07:31:09;;;;;;;30.40;13.48;;;15.00;57.80;;;;;;6258376;28;20111;-79
2022/03/25 07:34:11;;;;;;;28.90;14.77;;;17.00;53.40;;;;;;6257159;28;20060;-79
2022/03/25 07:37:13;;;;;;;30.40;15.27;;;18.80;45.60;;;;;;6256931;28;20531;-78
2022/03/25 07:40:17;;;;;;;34.13;17.13;;;20.30;41.50;;;;;;6257663;28;20060;-80
2022/03/25 07:43:20;;;;;;;31.15;17.35;;;21.40;38.60;;;;;;6258939;28;20115;-80
2022/03/25 07:46:23;;;;;;;33.58;16.65;;;22.40;36.00;;;;;;6256821;28;20467;-79
2022/03/25 07:49:25;;;;;;;38.15;17.20;;;22.40;33.60;;;;;;6257076;28;20414;-79
2022/03/25 07:52:26;;;;;;;29.15;16.08;;;22.10;33.80;;;;;;6257709;28;20061;-79
2022/03/25 07:55:29;;;;;;;32.97;14.88;;;21.70;33.90;;;;;;6257838;28;20129;-79
2022/03/25 07:58:32;;;;;;;33.55;17.25;;;21.00;34.60;;;;;;6258000;28;20045;-79
2022/03/25 08:01:34;;;;;;;31.13;16.73;;;20.30;36.50;;;;;;6256001;28;20604;-79
2022/03/25 08:04:35;;;;;;;39.58;18.92;;;19.70;36.50;;;;;;6256455;28;20124;-79
2022/03/25 08:07:43;;;;;;;38.60;17.50;;;19.50;37.70;;;;;;6255853;28;20109;-79
2022/03/25 08:10:45;;;;;;;38.17;16.87;;;19.90;37.00;;;;;;6254075;28;20180;-79
2022/03/25 08:13:48;;;;;;;32.42;17.38;;;20.40;35.90;;;;;;6228538;28;20054;-80
2022/03/25 08:16:50;;;;;;;40.17;16.00;;;20.90;34.90;;;;;;6255984;28;20108;-79
2022/03/25 08:19:51;;;;;;;30.13;16.88;;;21.00;34.50;;;;;;6256681;28;20045;-79
2022/03/25 08:22:55;;;;;;;31.38;16.23;;;20.90;33.80;;;;;;6254923;28;20415;-82
2022/03/25 08:29:18;;;;;;;32.15;16.40;;;20.50;34.50;;;;;;6253948;28;20041;-80
2022/03/25 08:32:19;;;;;;;34.33;16.60;;;21.00;33.80;;;;;;6253863;28;20048;-81
2022/03/25 08:35:21;;;;;;;42.25;16.00;;;21.40;33.60;;;;;;6253729;28;20071;-81
2022/03/25 08:38:23;;;;;;;30.75;15.23;;;21.40;32.60;;;;;;6253664;28;20088;-80
2022/03/25 08:41:25;;;;;;;30.10;17.85;;;21.10;33.00;;;;;;6253632;28;20049;-80
2022/03/25 08:44:28;;;;;;;36.58;17.73;;;20.50;33.80;;;;;;6253981;28;20041;-81
2022/03/25 08:47:30;;;;;;;34.30;16.27;;;20.30;34.70;;;;;;6253322;28;20049;-83
2022/03/25 08:50:31;;;;;;;27.50;15.32;;;20.50;34.90;;;;;;6252034;28;20187;-80
2022/03/25 08:53:34;;;;;;;30.75;15.75;;;21.10;33.90;;;;;;6253707;28;20072;-81
2022/03/25 08:56:35;;;;;;;29.02;16.17;;;21.40;33.40;;;;;;6252150;28;20041;-79
2022/03/25 08:59:39;;;;;;;35.53;16.67;;;21.70;32.30;;;;;;6254354;28;20123;-80
2022/03/25 09:02:42;;;;;;;31.95;16.77;;;22.00;32.10;;;;;;6253497;28;20041;-82
2022/03/25 09:05:44;;;;;;;33.30;16.83;;;22.60;31.90;;;;;;6251746;28;20068;-79
2022/03/25 09:08:46;;;;;;;32.72;15.38;;;23.20;30.50;;;;;;6252303;28;20099;-80
2022/03/25 09:11:48;;;;;;;36.63;16.98;;;23.50;29.70;;;;;;6253547;28;20136;-80
2022/03/25 09:14:51;;;;;;;39.05;16.77;;;23.80;29.30;;;;;;6251343;28;20133;-80
2022/03/25 09:17:53;;;;;;;32.05;17.65;;;24.40;28.70;;;;;;6251891;28;20049;-80
2022/03/25 09:20:55;;;;;;;29.10;16.77;;;24.80;28.30;;;;;;6253172;28;20046;-80
2022/03/25 09:23:57;;;;;;;39.28;16.73;;;24.80;27.90;;;;;;6251466;28;20055;-80
2022/03/25 09:26:59;;;;;;;31.85;16.42;;;24.10;28.00;;;;;;6251990;28;20184;-79
2022/03/25 09:30:02;;;;;;;33.60;16.45;;;23.70;28.80;;;;;;6251356;28;20063;-80
2022/03/25 09:33:07;;;;;;;33.50;16.50;;;23.60;28.60;;;;;;6255395;28;20068;-80
2022/03/25 09:36:09;;;;;;;29.35;14.82;;;23.20;28.80;;;;;;6257930;28;20087;-82
2022/03/25 09:39:11;;;;;;;26.08;13.60;;;22.90;29.10;;;;;;6259989;28;20136;-81
2022/03/25 09:42:13;;;;;;;28.42;16.25;;;22.50;29.90;;;;;;6261648;28;20049;-83
2022/03/25 09:45:16;;;;;;;32.30;16.75;;;22.40;29.90;;;;;;6260667;28;20048;-80
2022/03/25 09:48:18;;;;;;;30.83;17.13;;;22.20;29.70;;;;;;6256749;28;20103;-81
2022/03/25 09:51:20;;;;;;;32.53;17.02;;;22.00;29.90;;;;;;6257497;28;20053;-81
2022/03/25 09:54:22;;;;;;;28.52;15.35;;;21.80;29.70;;;;;;6256125;28;20057;-81
2022/03/25 09:57:24;;;;;;;31.95;15.60;;;21.50;30.00;;;;;;6256999;28;20053;-80
2022/03/25 10:00:27;;;;;;;32.03;16.67;;;21.20;30.30;;;;;;6255875;28;20091;-80
2022/03/25 10:03:36;;;;;;;29.55;17.63;;;20.90;31.10;;;;;;6257334;28;20473;-81
2022/03/25 10:06:47;;;;;;;28.83;15.75;;;20.80;31.70;;;;;;6256886;28;20049;-81
2022/03/25 10:09:50;;;;;;;29.88;16.55;;;20.90;32.30;;;;;;6258199;28;20415;-80
2022/03/25 10:12:59;;;;;;;38.95;17.08;;;21.10;31.00;;;;;;6257934;28;20054;-81
2022/03/25 10:16:26;;;;;;;39.45;16.73;;;21.30;31.30;;;;;;6257322;28;20518;-81
2022/03/25 10:19:27;;;;;;;39.40;18.27;;;21.60;31.10;;;;;;6258628;28;20049;-81
2022/03/25 10:22:29;;;;;;;34.20;17.98;;;21.90;30.70;;;;;;6258034;28;20053;-81
2022/03/25 10:25:40;;;;;;;34.65;17.83;;;22.10;29.90;;;;;;6257862;28;20107;-81
2022/03/25 10:28:44;;;;;;;36.92;17.70;;;22.40;30.00;;;;;;6257683;28;20072;-81
2022/03/25 10:32:05;;;;;;;31.45;17.65;;;22.60;29.70;;;;;;6258254;28;20046;-81
2022/03/25 10:35:09;;;;;;;33.10;18.23;;;22.80;29.20;;;;;;6257528;28;20055;-82
2022/03/25 10:38:11;;;;;;;33.72;17.30;;;22.80;29.40;;;;;;6256667;28;20123;-81
2022/03/25 10:41:15;;;;;;;30.92;15.82;;;22.70;29.10;;;;;;6256498;28;20050;-80
2022/03/25 10:44:17;;;;;;;33.35;18.08;;;22.60;29.60;;;;;;6258296;28;20553;-81
2022/03/25 10:47:26;;;;;;;30.80;17.90;;;23.10;29.40;;;;;;6257327;28;20080;-81
2022/03/25 10:50:28;;;;;;;34.55;17.30;;;23.30;29.40;;;;;;6260291;28;20073;-80
2022/03/25 10:53:31;;;;;;;35.45;17.70;;;23.70;29.20;;;;;;6262405;28;20065;-82
2022/03/25 10:56:43;;;;;;;33.03;17.92;;;24.20;28.70;;;;;;6261314;28;20098;-82
2022/03/25 10:59:59;;;;;;;35.13;18.38;;;24.10;28.80;;;;;;6262196;28;20056;-81
2022/03/25 11:03:03;;;;;;;33.63;18.02;;;24.20;28.90;;;;;;6262661;28;20053;-81
2022/03/25 11:06:05;;;;;;;38.17;17.20;;;24.50;28.70;;;;;;6259493;28;20067;-81
2022/03/25 11:09:09;;;;;;;33.03;18.33;;;24.60;28.60;;;;;;6261949;28;20100;-81
2022/03/25 11:12:12;;;;;;;33.78;17.88;;;25.00;28.40;;;;;;6261918;28;20060;-82
2022/03/25 11:15:16;;;;;;;31.40;16.50;;;24.80;27.90;;;;;;6261417;28;20053;-81
2022/03/25 11:18:20;;;;;;;30.13;17.30;;;24.60;28.60;;;;;;6262329;28;20518;-81
2022/03/25 11:21:26;;;;;;;34.03;18.45;;;25.00;28.10;;;;;;6262152;28;20451;-82
2022/03/25 11:24:32;;;;;;;30.33;18.02;;;25.40;27.70;;;;;;6260807;28;20060;-81
2022/03/25 11:27:38;;;;;;;31.17;17.42;;;25.40;27.50;;;;;;6262150;28;20047;-81
2022/03/25 11:30:40;;;;;;;29.02;16.45;;;25.20;27.90;;;;;;6261457;28;20107;-81
2022/03/25 11:34:09;;;;;;;31.13;16.77;;;25.50;27.60;;;;;;6262746;28;20474;-80
2022/03/25 11:37:21;;;;;;;34.88;18.10;;;26.10;26.70;;;;;;6264499;28;20054;-82
2022/03/25 11:40:27;;;;;;;24.20;15.93;;;26.40;26.80;;;;;;6263186;28;20065;-82
2022/03/25 11:43:29;;;;;;;29.27;17.77;;;26.10;26.90;;;;;;6259659;28;20053;-81
2022/03/25 11:46:30;;;;;;;37.28;17.90;;;26.40;26.60;;;;;;6259260;28;20077;-82
2022/03/25 11:49:36;;;;;;;34.08;17.83;;;26.80;26.70;;;;;;6257552;28;20406;-81
2022/03/25 11:52:40;;;;;;;32.60;18.58;;;27.20;26.10;;;;;;6258950;28;20045;-82
2022/03/25 11:55:55;;;;;;;37.80;16.15;;;27.50;25.80;;;;;;6259893;28;20104;-82
2022/03/25 11:58:59;;;;;;;28.98;16.85;;;27.60;25.40;;;;;;6259738;28;20058;-82
2022/03/25 12:02:30;;;;;;;27.83;17.67;;;27.70;25.30;;;;;;6259780;28;20042;-82
2022/03/25 12:05:56;;;;;;;35.30;19.17;;;27.70;25.20;;;;;;6252917;28;20052;-81
2022/03/25 12:09:01;;;;;;;32.92;17.52;;;27.30;25.10;;;;;;6254327;28;20123;-81
2022/03/25 12:12:04;;;;;;;28.17;18.02;;;26.70;25.80;;;;;;6260373;28;20447;-80
2022/03/25 12:15:07;;;;;;;28.33;18.33;;;26.40;25.50;;;;;;6256509;28;20449;-82
2022/03/25 12:18:46;;;;;;;26.30;17.35;;;26.00;25.70;;;;;;6257098;28;20052;-81
2022/03/25 12:21:49;;;;;;;33.95;19.02;;;26.00;25.70;;;;;;6257108;28;20046;-81
2022/03/25 12:24:53;;;;;;;29.48;17.38;;;26.30;26.10;;;;;;6254096;28;20495;-79
2022/03/25 12:27:55;;;;;;;31.13;18.45;;;26.30;25.70;;;;;;6257952;28;20139;-80
2022/03/25 12:31:03;;;;;;;31.13;19.02;;;26.10;26.20;;;;;;6257943;28;20049;-79
2022/03/25 12:34:06;;;;;;;31.92;17.63;;;26.10;25.70;;;;;;6255585;28;20051;-80
2022/03/25 12:37:12;;;;;;;35.05;19.05;;;25.80;26.20;;;;;;6254219;28;20075;-81
2022/03/25 12:40:16;;;;;;;32.33;17.85;;;25.80;26.30;;;;;;6257149;28;21207;-79
2022/03/25 12:43:18;;;;;;;30.73;16.95;;;25.90;26.20;;;;;;6261856;28;20136;-79
2022/03/25 12:46:25;;;;;;;33.85;19.35;;;25.80;25.90;;;;;;6258933;28;20049;-79
2022/03/25 12:49:28;;;;;;;30.02;17.40;;;25.70;26.50;;;;;;6255886;28;20052;-81
2022/03/25 12:52:31;;;;;;;31.60;16.63;;;25.80;26.10;;;;;;6255542;28;20518;-81
2022/03/25 12:55:33;;;;;;;27.90;17.63;;;26.20;26.20;;;;;;6252633;28;20045;-81
2022/03/25 12:58:40;;;;;;;26.95;16.92;;;26.60;25.70;;;;;;6256860;28;20045;-81
2022/03/25 13:01:46;;;;;;;28.85;17.50;;;26.60;25.40;;;;;;6257827;28;20045;-81
2022/03/25 13:04:48;;;;;;;28.02;17.05;;;26.70;25.50;;;;;;6256805;28;20101;-81
2022/03/25 13:07:54;;;;;;;30.33;18.40;;;27.40;25.60;;;;;;6256614;28;20125;-81
2022/03/25 13:10:59;;;;;;;30.45;17.33;;;27.70;24.60;;;;;;6233774;28;20053;-81
2022/03/25 13:14:01;;;;;;;48.60;19.20;;;28.00;24.90;;;;;;6233206;28;20057;-81
2022/03/25 13:17:03;;;;;;;25.02;17.17;;;28.10;24.70;;;;;;6233193;28;20060;-81
2022/03/25 13:20:09;;;;;;;28.85;16.83;;;28.10;24.20;;;;;;6230911;28;20124;-78
2022/03/25 13:23:14;;;;;;;24.02;16.30;;;27.70;24.10;;;;;;6229451;28;20105;-81
2022/03/25 13:26:16;;;;;;;25.48;17.00;;;27.40;24.90;;;;;;6230693;28;20057;-79
2022/03/25 13:29:18;;;;;;;27.58;17.27;;;27.70;24.80;;;;;;6233030;28;20049;-79
2022/03/25 13:32:37;;;;;;;28.20;17.42;;;27.80;24.50;;;;;;6243310;28;20507;-78
2022/03/25 13:35:41;;;;;;;25.52;16.35;;;27.40;24.00;;;;;;6259107;28;20095;-79
2022/03/25 13:38:47;;;;;;;32.78;17.40;;;27.20;24.60;;;;;;6281427;28;20132;-80
2022/03/25 13:41:48;;;;;;;30.60;17.10;;;27.30;24.60;;;;;;6281631;28;20076;-80
2022/03/25 13:44:50;;;;;;;29.17;16.15;;;26.80;24.50;;;;;;6281847;28;20045;-78
2022/03/25 13:48:03;;;;;;;29.63;16.58;;;26.60;24.10;;;;;;6283290;28;20063;-80
2022/03/25 13:51:16;;;;;;;31.70;17.50;;;26.10;24.60;;;;;;6282526;28;20048;-80
2022/03/25 13:54:28;;;;;;;26.25;16.85;;;26.10;25.40;;;;;;6280841;28;20049;-78
2022/03/25 13:57:29;;;;;;;31.40;18.38;;;26.20;24.70;;;;;;6283622;28;20044;-79
2022/03/25 14:00:33;;;;;;;28.70;15.88;;;26.00;25.30;;;;;;6282784;28;20048;-79
2022/03/25 14:03:35;;;;;;;30.63;17.40;;;26.30;25.50;;;;;;6280914;28;20434;-80
2022/03/25 14:06:40;;;;;;;27.52;17.55;;;26.10;25.00;;;;;;6281361;28;20098;-78
2022/03/25 14:09:44;;;;;;;29.08;17.33;;;25.70;25.10;;;;;;6282515;28;20041;-79
2022/03/25 14:12:54;;;;;;;34.22;17.10;;;25.50;25.50;;;;;;6283689;28;20064;-79
2022/03/25 14:16:14;;;;;;;28.70;17.77;;;25.60;25.40;;;;;;6284423;28;20049;-78
2022/03/25 14:19:18;;;;;;;23.58;15.38;;;25.80;25.80;;;;;;6285242;28;20044;-78
2022/03/25 14:22:20;;;;;;;24.65;14.80;;;25.90;24.50;;;;;;6285119;28;20585;-78
2022/03/25 14:25:27;;;;;;;26.52;16.27;;;25.70;24.20;;;;;;6286238;28;20100;-78
2022/03/25 14:28:29;;;;;;;25.70;14.73;;;25.50;24.70;;;;;;6285760;28;20044;-78
2022/03/25 14:31:31;;;;;;;20.80;14.52;;;25.20;24.90;;;;;;6286841;28;20057;-79
2022/03/25 14:34:33;;;;;;;22.30;14.40;;;24.80;24.60;;;;;;6285324;28;20143;-78
2022/03/25 14:37:34;;;;;;;25.42;16.83;;;24.70;25.30;;;;;;6285089;28;20091;-78
2022/03/25 14:40:37;;;;;;;25.85;15.60;;;24.80;25.50;;;;;;6285657;28;20110;-78
2022/03/25 14:43:39;;;;;;;28.40;14.80;;;25.10;25.50;;;;;;6283349;28;20131;-78
2022/03/25 14:46:45;;;;;;;20.98;11.52;;;25.40;25.00;;;;;;6281514;28;20113;-77
2022/03/25 14:49:47;;;;;;;27.63;12.63;;;25.20;23.70;;;;;;6282713;28;20041;-78
2022/03/25 14:52:49;;;;;;;19.73;12.38;;;24.50;23.90;;;;;;6282377;28;20049;-79
2022/03/25 14:55:52;;;;;;;23.88;12.75;;;24.20;23.60;;;;;;6281185;28;20487;-78
2022/03/25 14:58:56;;;;;;;20.55;13.80;;;23.90;24.10;;;;;;6277228;28;20593;-78
2022/03/25 15:01:58;;;;;;;18.58;11.50;;;23.80;24.00;;;;;;6277210;28;20147;-77
2022/03/25 15:05:01;;;;;;;18.02;11.25;;;23.50;24.00;;;;;;6275896;28;20055;-77
2022/03/25 15:08:04;;;;;;;20.13;11.10;;;23.30;23.80;;;;;;6278316;28;20148;-77
2022/03/25 15:11:07;;;;;;;28.17;14.00;;;23.10;23.80;;;;;;6277458;28;20041;-78
2022/03/25 15:14:09;;;;;;;21.45;11.80;;;23.00;24.30;;;;;;6279758;28;20508;-79
2022/03/25 15:17:11;;;;;;;24.00;14.43;;;22.90;24.40;;;;;;6278109;28;20053;-80
2022/03/25 15:20:14;;;;;;;23.60;13.02;;;22.90;24.80;;;;;;6280533;28;20134;-77
2022/03/25 15:23:16;;;;;;;24.35;14.05;;;22.90;24.90;;;;;;6281774;28;20091;-77
2022/03/25 15:26:20;;;;;;;25.05;14.50;;;22.90;25.00;;;;;;6297095;22;20047;-79
2022/03/25 15:36:01;;;;;;;19.92;12.23;;;21.90;25.40;;;;;;6326831;28;20071;-78
2022/03/25 15:39:05;;;;;;;29.63;14.75;;;21.70;25.40;;;;;;6287027;28;20053;-80
2022/03/25 15:42:08;;;;;;;25.35;12.90;;;21.50;25.30;;;;;;6283570;28;20045;-80
2022/03/25 15:45:11;;;;;;;23.15;13.80;;;21.40;25.70;;;;;;6276869;28;20051;-79
2022/03/25 15:48:13;;;;;;;23.23;13.45;;;21.30;26.10;;;;;;6276695;28;20111;-79
2022/03/25 15:51:15;;;;;;;23.10;13.25;;;21.20;26.10;;;;;;6279877;28;20111;-79
2022/03/25 15:54:17;;;;;;;23.02;12.27;;;21.10;25.70;;;;;;6277527;28;20048;-79
2022/03/25 15:57:20;;;;;;;20.38;12.15;;;20.80;25.80;;;;;;6277650;28;20045;-79